createdAt,value
2017-06-10T00:01:46.392Z,95.50
2017-06-10T00:04:14.544Z,95.50
2017-06-10T00:06:42.786Z,95.60
2017-06-10T00:09:10.934Z,95.50
2017-06-10T00:11:39.095Z,95.40
2017-06-10T00:14:07.262Z,95.30
2017-06-10T00:16:35.432Z,95.60
2017-06-10T00:19:03.625Z,95.70
2017-06-10T00:21:32.027Z,95.70
2017-06-10T00:24:01.015Z,95.90
2017-06-10T00:26:29.937Z,96.00
2017-06-10T00:28:58.089Z,96.00
2017-06-10T00:31:26.273Z,96.00
2017-06-10T00:33:54.577Z,96.00
2017-06-10T00:36:22.725Z,95.80
2017-06-10T00:38:50.902Z,95.90
2017-06-10T00:41:19.054Z,96.20
2017-06-10T00:43:48.000Z,96.10
2017-06-10T00:46:16.136Z,96.00
2017-06-10T00:48:44.278Z,96.20
2017-06-10T00:51:12.450Z,96.20
2017-06-10T00:53:40.614Z,96.20
2017-06-10T00:56:08.804Z,96.10
2017-06-10T00:58:36.940Z,95.80
2017-06-10T01:01:05.121Z,95.70
2017-06-10T01:03:33.280Z,95.90
2017-06-10T01:06:01.432Z,95.90
2017-06-10T01:08:29.717Z,95.80
2017-06-10T01:10:57.864Z,95.60
2017-06-10T01:13:26.772Z,95.60
2017-06-10T01:15:54.929Z,95.60
2017-06-10T01:18:23.847Z,95.60
2017-06-10T01:20:52.020Z,95.60
2017-06-10T01:23:20.178Z,95.40
2017-06-10T01:25:49.086Z,95.00
2017-06-10T01:28:17.263Z,95.00
2017-06-10T01:30:45.418Z,94.80
2017-06-10T01:33:14.349Z,95.10
2017-06-10T01:35:42.521Z,94.70
2017-06-10T01:38:11.494Z,94.60
2017-06-10T01:40:39.681Z,94.70
2017-06-10T01:43:07.883Z,94.70
2017-06-10T01:45:36.065Z,94.70
2017-06-10T01:48:04.292Z,94.30
2017-06-10T01:50:32.838Z,94.00
2017-06-10T01:53:01.012Z,94.00
2017-06-10T01:55:29.264Z,93.80
2017-06-10T01:57:57.444Z,93.60
2017-06-10T02:00:25.637Z,93.10
2017-06-10T02:02:53.894Z,93.10
2017-06-10T02:05:22.063Z,93.20
2017-06-10T02:07:50.199Z,92.90
2017-06-10T02:10:18.370Z,92.30
2017-06-10T02:12:46.547Z,92.30
2017-06-10T02:15:14.735Z,92.30
2017-06-10T02:17:42.873Z,92.60
2017-06-10T02:20:10.991Z,92.60
2017-06-10T02:22:39.181Z,92.50
2017-06-10T02:25:08.164Z,92.50
2017-06-10T02:27:36.392Z,92.60
2017-06-10T02:30:04.531Z,92.50
2017-06-10T02:32:32.683Z,92.70
2017-06-10T02:35:00.836Z,92.70
2017-06-10T02:37:28.955Z,92.90
2017-06-10T02:39:57.130Z,93.00
2017-06-10T02:42:25.318Z,92.70
2017-06-10T02:44:53.596Z,92.60
2017-06-10T02:47:21.750Z,92.40
2017-06-10T02:49:49.877Z,92.40
2017-06-10T02:52:18.058Z,92.70
2017-06-10T02:54:46.207Z,92.60
2017-06-10T02:57:14.347Z,92.60
2017-06-10T02:59:42.517Z,92.70
2017-06-10T03:02:10.714Z,92.20
2017-06-10T03:04:38.897Z,92.20
2017-06-10T03:07:07.062Z,91.90
2017-06-10T03:09:35.977Z,91.50
2017-06-10T03:12:04.146Z,91.50
2017-06-10T03:14:33.195Z,92.00
2017-06-10T03:17:01.363Z,92.00
2017-06-10T03:19:29.506Z,92.20
2017-06-10T03:21:57.670Z,92.50
2017-06-10T03:24:25.820Z,92.40
2017-06-10T03:26:53.950Z,92.80
2017-06-10T03:29:22.273Z,92.80
2017-06-10T03:31:50.431Z,92.70
2017-06-10T03:34:18.566Z,92.60
2017-06-10T03:36:46.728Z,92.90
2017-06-10T03:39:14.892Z,93.10
2017-06-10T03:41:43.044Z,93.30
2017-06-10T03:44:11.318Z,93.60
2017-06-10T03:46:39.463Z,93.40
2017-06-10T03:49:07.657Z,93.40
2017-06-10T03:51:35.797Z,93.50
2017-06-10T03:54:03.933Z,93.80
2017-06-10T03:56:32.107Z,93.80
2017-06-10T03:59:00.226Z,93.90
2017-06-10T04:01:28.422Z,93.90
2017-06-10T04:03:56.553Z,93.70
2017-06-10T04:06:24.900Z,93.90
2017-06-10T04:08:53.073Z,93.90
2017-06-10T04:11:21.200Z,93.80
2017-06-10T04:13:49.416Z,93.60
2017-06-10T04:16:17.557Z,93.40
2017-06-10T04:18:45.701Z,93.40
2017-06-10T04:21:13.864Z,93.30
2017-06-10T04:23:42.042Z,93.50
2017-06-10T04:26:10.226Z,93.20
2017-06-10T04:28:38.464Z,93.10
2017-06-10T04:31:07.354Z,92.80
2017-06-10T04:33:36.303Z,93.50
2017-06-10T04:36:04.456Z,93.00
2017-06-10T04:38:32.634Z,92.70
2017-06-10T04:41:00.779Z,92.70
2017-06-10T04:43:28.899Z,92.60
2017-06-10T04:45:57.081Z,92.40
2017-06-10T04:48:25.248Z,92.70
2017-06-10T04:50:53.432Z,92.70
2017-06-10T04:53:21.573Z,92.80
2017-06-10T04:55:49.711Z,92.50
2017-06-10T04:58:17.891Z,92.30
2017-06-10T05:00:46.063Z,92.40
2017-06-10T05:03:15.040Z,92.70
2017-06-10T05:05:43.205Z,92.20
2017-06-10T05:08:11.338Z,91.90
2017-06-10T05:10:39.511Z,91.10
2017-06-10T05:13:07.666Z,91.10
2017-06-10T05:15:36.585Z,91.70
2017-06-10T05:18:04.724Z,91.70
2017-06-10T05:20:33.815Z,91.20
2017-06-10T05:23:01.956Z,91.20
2017-06-10T05:25:30.096Z,90.90
2017-06-10T05:27:58.274Z,90.40
2017-06-10T05:30:26.417Z,90.20
2017-06-10T05:32:54.555Z,90.10
2017-06-10T05:35:22.868Z,90.40
2017-06-10T05:37:50.996Z,90.30
2017-06-10T05:40:19.203Z,90.50
2017-06-10T05:42:47.326Z,91.30
2017-06-10T05:45:15.568Z,91.20
2017-06-10T05:47:43.725Z,91.40
2017-06-10T05:50:11.844Z,91.20
2017-06-10T05:52:40.040Z,91.00
2017-06-10T05:55:08.373Z,90.30
2017-06-10T05:57:36.548Z,90.40
2017-06-10T06:00:04.718Z,90.50
2017-06-10T06:02:32.866Z,90.10
2017-06-10T06:05:01.042Z,90.00
2017-06-10T06:07:29.169Z,90.00
2017-06-10T06:09:57.294Z,90.00
2017-06-10T06:12:25.458Z,89.30
2017-06-10T06:14:53.586Z,88.80
2017-06-10T06:17:21.753Z,88.30
2017-06-10T06:19:49.897Z,87.30
2017-06-10T06:22:18.035Z,87.70
2017-06-10T06:24:46.215Z,87.60
2017-06-10T06:27:14.361Z,87.30
2017-06-10T06:29:42.568Z,86.90
2017-06-10T06:32:10.703Z,85.60
2017-06-10T06:34:38.834Z,86.10
2017-06-10T06:37:07.155Z,86.00
2017-06-10T06:39:35.373Z,85.50
2017-06-10T06:42:03.534Z,85.40
2017-06-10T06:44:31.662Z,86.20
2017-06-10T06:47:00.207Z,86.30
2017-06-10T06:49:28.395Z,85.20
2017-06-10T06:51:56.530Z,84.30
2017-06-10T06:54:25.565Z,83.10
2017-06-10T06:56:53.714Z,83.00
2017-06-10T06:59:22.284Z,82.20
2017-06-10T07:01:50.518Z,82.60
2017-06-10T07:04:18.655Z,83.10
2017-06-10T07:06:47.198Z,81.60
2017-06-10T07:09:15.342Z,81.10
2017-06-10T07:11:44.865Z,79.50
2017-06-10T07:14:13.053Z,79.20
2017-06-10T07:16:41.286Z,77.30
2017-06-10T07:19:09.471Z,77.10
2017-06-10T07:21:37.631Z,76.70
2017-06-10T07:24:05.843Z,75.10
2017-06-10T07:26:34.102Z,75.40
2017-06-10T07:29:02.233Z,74.80
2017-06-10T07:31:32.735Z,74.50
2017-06-10T07:34:00.867Z,74.40
2017-06-10T07:36:29.000Z,73.60
2017-06-10T07:38:57.166Z,73.50
2017-06-10T07:41:25.999Z,73.50
2017-06-10T07:43:54.222Z,73.60
2017-06-10T07:46:22.374Z,74.20
2017-06-10T07:48:50.581Z,75.40
2017-06-10T07:51:18.865Z,75.90
2017-06-10T07:53:47.082Z,75.80
2017-06-10T07:56:15.305Z,72.60
2017-06-10T07:58:43.428Z,71.20
2017-06-10T08:01:11.543Z,69.10
2017-06-10T08:03:39.697Z,67.70
2017-06-10T08:06:07.834Z,65.90
2017-06-10T08:08:36.791Z,65.90
2017-06-10T08:11:05.610Z,65.70
2017-06-10T08:13:34.589Z,63.90
2017-06-10T08:16:02.781Z,63.80
2017-06-10T08:18:31.002Z,64.30
2017-06-10T08:20:59.170Z,66.60
2017-06-10T08:23:27.293Z,68.00
2017-06-10T08:25:56.494Z,68.50
2017-06-10T08:28:24.647Z,67.20
2017-06-10T08:30:52.766Z,67.60
2017-06-10T08:33:21.703Z,64.40
2017-06-10T08:35:49.875Z,64.40
2017-06-10T08:38:17.986Z,62.90
2017-06-10T08:40:46.171Z,63.90
2017-06-10T08:43:15.074Z,64.80
2017-06-10T08:45:44.022Z,63.60
2017-06-10T08:48:12.154Z,63.50
2017-06-10T08:50:40.305Z,64.20
2017-06-10T08:53:08.477Z,62.90
2017-06-10T08:55:36.611Z,60.90
2017-06-10T08:58:05.621Z,58.00
2017-06-10T09:00:33.772Z,57.90
2017-06-10T09:03:01.901Z,57.30
2017-06-10T09:05:30.044Z,56.30
2017-06-10T09:07:58.190Z,55.20
2017-06-10T09:10:26.394Z,52.90
2017-06-10T09:12:54.534Z,52.20
2017-06-10T09:15:22.674Z,53.10
2017-06-10T09:17:50.828Z,52.60
2017-06-10T09:20:18.987Z,53.40
2017-06-10T09:22:47.935Z,53.90
2017-06-10T09:25:16.714Z,51.80
2017-06-10T09:27:44.854Z,52.80
2017-06-10T09:30:13.007Z,51.00
2017-06-10T09:32:41.161Z,51.80
2017-06-10T09:35:10.593Z,50.00
2017-06-10T09:37:38.755Z,50.40
2017-06-10T09:40:06.901Z,51.40
2017-06-10T09:42:35.041Z,52.50
2017-06-10T09:45:04.000Z,49.90
2017-06-10T09:47:32.176Z,48.50
2017-06-10T09:50:00.395Z,49.60
2017-06-10T09:52:28.534Z,48.70
2017-06-10T09:54:56.710Z,50.00
2017-06-10T09:57:24.860Z,51.10
2017-06-10T09:59:53.883Z,50.60
2017-06-10T10:02:22.030Z,51.00
2017-06-10T10:04:50.182Z,51.20
2017-06-10T10:07:18.356Z,51.60
2017-06-10T10:09:47.276Z,52.00
2017-06-10T10:12:15.472Z,51.30
2017-06-10T10:14:44.517Z,49.30
2017-06-10T10:17:12.679Z,49.20
2017-06-10T10:19:40.829Z,49.90
2017-06-10T10:22:08.980Z,51.20
2017-06-10T10:24:37.161Z,51.30
2017-06-10T10:27:05.301Z,53.20
2017-06-10T10:29:33.441Z,53.40
2017-06-10T10:32:01.995Z,53.20
2017-06-10T10:34:30.143Z,53.00
2017-06-10T10:36:59.402Z,53.70
2017-06-10T10:39:27.572Z,53.60
2017-06-10T10:41:55.695Z,52.90
2017-06-10T10:44:24.184Z,53.90
2017-06-10T10:46:52.336Z,53.40
2017-06-10T10:49:20.524Z,51.80
2017-06-10T10:51:49.386Z,49.60
2017-06-10T10:54:17.522Z,49.80
2017-06-10T10:56:45.650Z,49.10
2017-06-10T10:59:15.450Z,49.30
2017-06-10T11:01:44.168Z,48.10
2017-06-10T11:04:13.091Z,48.30
2017-06-10T11:06:41.612Z,47.00
2017-06-10T11:09:09.738Z,47.90
2017-06-10T11:11:37.915Z,47.20
2017-06-10T11:14:06.038Z,47.10
2017-06-10T11:16:34.162Z,48.00
2017-06-10T11:19:02.821Z,46.90
2017-06-10T11:21:30.940Z,47.30
2017-06-10T11:23:59.147Z,47.60
2017-06-10T11:26:28.059Z,48.70
2017-06-10T11:28:56.186Z,48.50
2017-06-10T11:31:24.331Z,48.60
2017-06-10T11:33:52.470Z,48.00
2017-06-10T11:36:20.641Z,47.80
2017-06-10T11:38:48.774Z,46.80
2017-06-10T11:41:16.919Z,44.70
2017-06-10T11:43:45.059Z,44.40
2017-06-10T11:46:13.194Z,44.80
2017-06-10T11:48:41.414Z,45.40
2017-06-10T11:51:10.169Z,46.70
2017-06-10T11:53:38.309Z,48.90
2017-06-10T11:56:06.456Z,49.50
2017-06-10T11:58:34.604Z,49.30
2017-06-10T12:01:02.770Z,50.00
2017-06-10T12:03:30.894Z,49.00
2017-06-10T12:05:59.042Z,49.90
2017-06-10T12:08:27.190Z,50.80
2017-06-10T12:10:55.316Z,51.30
2017-06-10T12:13:23.487Z,51.70
2017-06-10T12:15:51.638Z,52.20
2017-06-10T12:18:19.770Z,53.00
2017-06-10T12:20:47.930Z,53.10
2017-06-10T12:23:16.065Z,50.90
2017-06-10T12:25:44.240Z,50.30
2017-06-10T12:28:12.418Z,48.50
2017-06-10T12:30:40.559Z,48.10
2017-06-10T12:33:08.704Z,45.90
2017-06-10T12:35:36.831Z,45.00
2017-06-10T12:38:05.007Z,45.00
2017-06-10T12:40:33.119Z,46.40
2017-06-10T12:43:01.254Z,47.20
2017-06-10T12:45:29.406Z,48.30
2017-06-10T12:47:57.535Z,48.90
2017-06-10T12:50:25.719Z,46.80
2017-06-10T12:52:53.887Z,47.30
2017-06-10T12:55:22.785Z,47.80
2017-06-10T12:57:50.929Z,47.80
2017-06-10T13:00:19.084Z,47.10
2017-06-10T13:02:47.261Z,45.70
2017-06-10T13:05:15.433Z,45.00
2017-06-10T13:07:43.552Z,45.60
2017-06-10T13:10:11.727Z,46.70
2017-06-10T13:12:40.769Z,47.20
2017-06-10T13:15:09.800Z,46.70
2017-06-10T13:17:38.046Z,46.60
2017-06-10T13:20:06.186Z,47.90
2017-06-10T13:22:34.338Z,48.90
2017-06-10T13:25:02.466Z,47.50
2017-06-10T13:27:30.636Z,48.70
2017-06-10T13:29:58.762Z,48.00
2017-06-10T13:32:26.885Z,47.20
2017-06-10T13:34:55.165Z,45.00
2017-06-10T13:37:23.420Z,42.40
2017-06-10T13:39:51.594Z,43.20
2017-06-10T13:42:19.731Z,44.30
2017-06-10T13:44:47.872Z,44.20
2017-06-10T13:47:16.114Z,43.70
2017-06-10T13:49:44.257Z,41.70
2017-06-10T13:52:12.439Z,42.50
2017-06-10T13:54:40.591Z,42.70
2017-06-10T13:57:08.731Z,43.20
2017-06-10T13:59:36.881Z,43.00
2017-06-10T14:02:05.022Z,42.50
2017-06-10T14:04:33.260Z,42.50
2017-06-10T14:07:01.409Z,42.80
2017-06-10T14:09:29.566Z,43.30
2017-06-10T14:11:57.725Z,43.10
2017-06-10T14:14:25.848Z,43.20
2017-06-10T14:16:54.021Z,43.90
2017-06-10T14:19:22.180Z,42.40
2017-06-10T14:21:50.323Z,43.30
2017-06-10T14:24:18.497Z,43.80
2017-06-10T14:26:46.621Z,44.60
2017-06-10T14:29:14.784Z,44.80
2017-06-10T14:31:42.921Z,45.10
2017-06-10T14:34:11.074Z,44.80
2017-06-10T14:36:39.982Z,45.50
2017-06-10T14:39:08.108Z,45.10
2017-06-10T14:41:36.291Z,45.40
2017-06-10T14:44:04.434Z,45.20
2017-06-10T14:46:32.576Z,45.10
2017-06-10T14:49:00.749Z,46.50
2017-06-10T14:51:28.930Z,46.90
2017-06-10T14:53:57.111Z,45.50
2017-06-10T14:56:25.240Z,46.00
2017-06-10T14:58:53.364Z,46.50
2017-06-10T15:01:21.597Z,46.50
2017-06-10T15:03:49.759Z,46.60
2017-06-10T15:06:17.966Z,47.70
2017-06-10T15:08:46.133Z,47.10
2017-06-10T15:11:14.293Z,46.50
2017-06-10T15:13:42.457Z,47.30
2017-06-10T15:16:10.602Z,47.70
2017-06-10T15:18:38.779Z,47.80
2017-06-10T15:21:06.912Z,48.20
2017-06-10T15:23:35.075Z,49.00
2017-06-10T15:26:03.238Z,47.90
2017-06-10T15:28:31.395Z,48.10
2017-06-10T15:30:59.615Z,48.70
2017-06-10T15:33:27.747Z,49.10
2017-06-10T15:35:55.899Z,50.40
2017-06-10T15:38:24.856Z,50.90
2017-06-10T15:40:52.968Z,50.30
2017-06-10T15:43:21.094Z,50.70
2017-06-10T15:45:49.250Z,50.70
2017-06-10T15:48:17.395Z,50.70
2017-06-10T15:50:45.530Z,51.00
2017-06-10T15:53:14.439Z,50.60
2017-06-10T15:55:42.583Z,50.60
2017-06-10T15:58:10.722Z,51.20
2017-06-10T16:00:39.065Z,51.20
2017-06-10T16:03:07.186Z,50.90
2017-06-10T16:05:35.330Z,51.20
2017-06-10T16:08:03.487Z,51.40
2017-06-10T16:10:32.406Z,53.60
2017-06-10T16:13:00.564Z,52.90
2017-06-10T16:15:28.704Z,54.10
2017-06-10T16:17:56.828Z,53.90
2017-06-10T16:20:24.999Z,54.10
2017-06-10T16:22:53.124Z,53.60
2017-06-10T16:25:21.292Z,53.70
2017-06-10T16:27:49.417Z,53.30
2017-06-10T16:30:17.541Z,53.40
2017-06-10T16:32:45.711Z,53.60
2017-06-10T16:35:13.831Z,53.60
2017-06-10T16:37:42.021Z,53.60
2017-06-10T16:40:10.137Z,53.50
2017-06-10T16:42:38.264Z,53.90
2017-06-10T16:45:06.413Z,54.60
2017-06-10T16:47:34.525Z,55.10
2017-06-10T16:50:02.726Z,55.00
2017-06-10T16:52:30.961Z,54.90
2017-06-10T16:54:59.092Z,55.10
2017-06-10T16:57:27.243Z,55.70
2017-06-10T16:59:55.375Z,55.50
2017-06-10T17:02:23.558Z,55.60
2017-06-10T17:04:52.458Z,56.30
2017-06-10T17:07:21.408Z,56.20
2017-06-10T17:09:50.307Z,55.30
2017-06-10T17:12:18.447Z,55.20
2017-06-10T17:14:46.619Z,56.10
2017-06-10T17:17:14.762Z,56.50
2017-06-10T17:19:43.676Z,56.10
2017-06-10T17:22:11.829Z,56.10
2017-06-10T17:24:39.994Z,56.00
2017-06-10T17:27:08.988Z,55.70
2017-06-10T17:29:38.015Z,55.70
2017-06-10T17:32:06.198Z,55.60
2017-06-10T17:34:34.409Z,55.50
2017-06-10T17:37:02.542Z,56.10
2017-06-10T17:39:30.700Z,56.50
2017-06-10T17:41:58.851Z,56.10
2017-06-10T17:44:26.973Z,56.50
2017-06-10T17:46:55.133Z,56.60
2017-06-10T17:49:23.270Z,56.30
2017-06-10T17:51:52.327Z,56.50
2017-06-10T17:54:21.238Z,56.70
2017-06-10T17:56:49.697Z,56.70
2017-06-10T17:59:17.857Z,56.70
2017-06-10T18:01:46.809Z,57.10
2017-06-10T18:04:15.090Z,57.00
2017-06-10T18:06:43.225Z,57.40
2017-06-10T18:09:11.364Z,56.40
2017-06-10T18:11:39.520Z,56.90
2017-06-10T18:14:08.348Z,56.40
2017-06-10T18:16:36.531Z,56.50
2017-06-10T18:19:04.658Z,56.90
2017-06-10T18:21:32.796Z,56.60
2017-06-10T18:24:00.936Z,56.90
2017-06-10T18:26:29.109Z,57.00
2017-06-10T18:28:57.800Z,57.10
2017-06-10T18:31:25.920Z,57.30
2017-06-10T18:33:54.285Z,56.90
2017-06-10T18:36:24.230Z,57.30
2017-06-10T18:38:52.388Z,57.30
2017-06-10T18:41:21.462Z,57.40
2017-06-10T18:43:50.273Z,57.50
2017-06-10T18:46:18.400Z,57.40
2017-06-10T18:48:46.649Z,57.60
2017-06-10T18:51:14.843Z,58.00
2017-06-10T18:53:43.089Z,57.70
2017-06-10T18:56:12.053Z,57.60
2017-06-10T18:58:40.183Z,57.40
2017-06-10T19:01:09.136Z,58.00
2017-06-10T19:03:37.380Z,57.90
2017-06-10T19:06:05.514Z,58.90
2017-06-10T19:08:33.909Z,59.20
2017-06-10T19:11:02.706Z,59.80
2017-06-10T19:13:30.850Z,60.30
2017-06-10T19:15:58.990Z,59.90
2017-06-10T19:18:28.329Z,59.90
2017-06-10T19:20:57.173Z,59.50
2017-06-10T19:23:25.835Z,59.90
2017-06-10T19:25:54.206Z,60.40
2017-06-10T19:28:22.342Z,61.00
2017-06-10T19:30:50.731Z,61.50
2017-06-10T19:33:18.912Z,61.50
2017-06-10T19:35:47.139Z,61.50
2017-06-10T19:38:15.283Z,61.60
2017-06-10T19:40:43.665Z,61.90
2017-06-10T19:43:11.806Z,61.50
2017-06-10T19:45:40.042Z,62.10
2017-06-10T19:48:08.964Z,62.40
2017-06-10T19:50:37.840Z,62.70
2017-06-10T19:53:06.036Z,63.30
2017-06-10T19:55:34.196Z,63.30
2017-06-10T19:58:03.173Z,64.60
2017-06-10T20:00:31.431Z,64.40
2017-06-10T20:03:00.095Z,66.30
2017-06-10T20:05:28.310Z,67.10
2017-06-10T20:07:56.489Z,67.60
2017-06-10T20:10:24.687Z,66.80
2017-06-10T20:12:52.835Z,67.00
2017-06-10T20:15:21.037Z,67.20
2017-06-10T20:17:49.213Z,67.10
2017-06-10T20:20:17.441Z,67.60
2017-06-10T20:22:45.608Z,68.10
2017-06-10T20:25:14.626Z,68.40
2017-06-10T20:27:42.842Z,68.40
2017-06-10T20:30:12.124Z,68.80
2017-06-10T20:32:41.032Z,69.40
2017-06-10T20:35:09.224Z,69.40
2017-06-10T20:37:38.243Z,69.50
2017-06-10T20:40:06.406Z,69.40
2017-06-10T20:42:34.575Z,68.90
2017-06-10T20:45:02.763Z,69.10
2017-06-10T20:47:31.471Z,69.50
2017-06-10T20:49:59.643Z,69.90
2017-06-10T20:52:28.195Z,70.20
2017-06-10T20:54:56.390Z,70.20
2017-06-10T20:57:24.575Z,71.10
2017-06-10T20:59:54.328Z,69.60
2017-06-10T21:02:23.476Z,69.50
2017-06-10T21:04:51.698Z,70.10
2017-06-10T21:07:19.956Z,70.50
2017-06-10T21:09:48.119Z,70.90
2017-06-10T21:12:16.308Z,71.20
2017-06-10T21:14:44.461Z,71.10
2017-06-10T21:17:13.398Z,72.20
2017-06-10T21:19:41.572Z,71.90
2017-06-10T21:22:10.443Z,72.40
2017-06-10T21:24:39.680Z,73.20
2017-06-10T21:27:08.030Z,73.10
2017-06-10T21:29:36.197Z,73.50
2017-06-10T21:32:04.382Z,73.50
2017-06-10T21:34:32.629Z,73.30
2017-06-10T21:37:01.684Z,74.00
2017-06-10T21:39:29.847Z,73.20
2017-06-10T21:41:58.001Z,73.30
2017-06-10T21:44:28.143Z,73.20
2017-06-10T21:46:56.808Z,73.10
2017-06-10T21:49:24.991Z,72.90
2017-06-10T21:51:53.971Z,73.00
2017-06-10T21:54:22.116Z,73.30
2017-06-10T21:56:51.060Z,73.80
2017-06-10T21:59:20.066Z,73.10
2017-06-10T22:01:48.263Z,73.00
2017-06-10T22:04:16.472Z,73.40
2017-06-10T22:06:45.359Z,73.80
2017-06-10T22:09:13.698Z,73.70
2017-06-10T22:11:42.165Z,73.80
2017-06-10T22:14:10.901Z,73.80
2017-06-10T22:16:39.368Z,74.40
2017-06-10T22:19:08.499Z,74.90
2017-06-10T22:21:36.747Z,75.30
2017-06-10T22:24:05.485Z,75.50
2017-06-10T22:26:33.705Z,76.20
2017-06-10T22:29:02.115Z,75.80
2017-06-10T22:31:30.452Z,74.80
2017-06-10T22:33:58.626Z,74.60
2017-06-10T22:36:27.465Z,73.70
2017-06-10T22:38:55.677Z,74.00
2017-06-10T22:41:24.462Z,73.20
2017-06-10T22:43:53.781Z,73.50
2017-06-10T22:46:21.932Z,73.40
2017-06-10T22:48:50.100Z,72.10
2017-06-10T22:51:18.326Z,70.90
2017-06-10T22:53:46.537Z,68.40
2017-06-10T22:56:14.686Z,68.90
2017-06-10T22:58:42.978Z,68.40
2017-06-10T23:01:11.142Z,69.30
2017-06-10T23:03:39.397Z,70.20
2017-06-10T23:06:08.388Z,71.70
2017-06-10T23:08:36.584Z,71.60
2017-06-10T23:11:05.455Z,71.70
2017-06-10T23:13:33.626Z,71.30
2017-06-10T23:16:01.805Z,71.70
2017-06-10T23:18:30.890Z,71.60
2017-06-10T23:20:59.197Z,71.70
2017-06-10T23:23:27.580Z,71.80
2017-06-10T23:25:56.902Z,71.80
2017-06-10T23:28:25.068Z,71.70
2017-06-10T23:30:53.937Z,72.00
2017-06-10T23:33:22.079Z,72.30
2017-06-10T23:35:50.354Z,72.30
2017-06-10T23:38:18.470Z,72.60
2017-06-10T23:40:46.663Z,72.80
2017-06-10T23:43:14.824Z,72.40
2017-06-10T23:45:42.979Z,72.80
2017-06-10T23:48:11.150Z,73.10
2017-06-10T23:50:39.295Z,73.30
2017-06-10T23:53:07.475Z,73.50
2017-06-10T23:55:35.636Z,73.70
2017-06-10T23:58:03.764Z,73.90
